Time;durP1;ratioP1;P1;durP2;ratioP2;P2;SDS_P1;SDS_P2;PMS_P1;PMS_P2;Temp;Humidity;BMP_temperature;BMP_pressure;BME280_temperature;BME280_humidity;BME280_pressure;Samples;Min_cycle;Max_cycle;Signal;HPM_P1;HPM_P2
2023/01/27 04:57:59;;;;;;;23.15;12.07;;;;;;;-1.44;100.00;100232.97;5559799;32;327550;-89
2023/01/27 05:01:02;;;;;;;21.90;11.75;;;;;;;-1.44;100.00;100232.97;5545873;32;33614;-88
2023/01/27 05:04:05;;;;;;;23.20;11.68;;;;;;;-1.93;100.00;100242.56;5544981;32;33445;-89
2023/01/27 05:07:08;;;;;;;22.23;11.32;;;;;;;-2.01;100.00;100237.37;5544760;32;33594;-89
2023/01/27 05:10:11;;;;;;;23.50;11.12;;;;;;;-2.06;100.00;100244.34;5544494;32;33880;-88
2023/01/27 05:13:15;;;;;;;22.23;11.00;;;;;;;-2.09;100.00;100252.12;5545477;32;34550;-88
2023/01/27 05:16:23;;;;;;;24.77;12.13;;;;;;;-2.13;100.00;100245.16;5549250;32;34499;-88
2023/01/27 05:19:26;;;;;;;23.48;11.95;;;;;;;-2.15;100.00;100245.19;5550967;32;34305;-88
2023/01/27 05:22:28;;;;;;;24.17;12.25;;;;;;;-2.18;100.00;100240.84;5550915;32;33796;-88
2023/01/27 05:25:31;;;;;;;22.67;12.05;;;;;;;-2.13;100.00;100237.37;5544845;32;34135;-89
2023/01/27 05:28:36;;;;;;;20.30;11.10;;;;;;;-2.13;100.00;100238.25;5544998;32;33550;-89
2023/01/27 05:31:39;;;;;;;21.73;11.80;;;;;;;-2.11;100.00;100231.31;5545099;32;33817;-89
2023/01/27 05:34:42;;;;;;;22.05;11.93;;;;;;;-2.04;100.00;100230.47;5545405;32;34590;-89
2023/01/27 05:37:45;;;;;;;22.73;12.00;;;;;;;-2.04;100.00;100234.78;5547063;32;33501;-88
2023/01/27 05:40:47;;;;;;;25.17;12.25;;;;;;;-2.05;100.00;100231.31;5548367;32;34123;-89
2023/01/27 05:43:53;;;;;;;22.98;12.23;;;;;;;-1.98;100.00;100239.09;5545154;32;33872;-89
2023/01/27 05:46:59;;;;;;;23.05;12.48;;;;;;;-2.04;100.00;100232.19;5545228;32;33858;-88
2023/01/27 05:50:01;;;;;;;21.05;12.13;;;;;;;-2.05;100.00;100236.50;5546251;32;34623;-88
2023/01/27 05:53:04;;;;;;;24.23;12.13;;;;;;;-2.07;100.00;100240.84;5546633;32;35165;-88
2023/01/27 05:56:09;;;;;;;22.08;11.18;;;;;;;-2.03;100.00;100233.91;5548691;32;33994;-87
2023/01/27 05:59:12;;;;;;;20.88;11.55;;;;;;;-1.96;100.00;100233.03;5548686;32;33903;-87
2023/01/27 06:02:15;;;;;;;22.80;12.07;;;;;;;-1.95;100.00;100236.53;5545722;32;34621;-88
2023/01/27 06:05:18;;;;;;;20.15;11.45;;;;;;;-1.91;100.00;100243.47;5546150;32;33883;-87
2023/01/27 06:08:22;;;;;;;23.40;11.48;;;;;;;-1.92;100.00;100226.09;5550319;32;32783;-91
2023/01/27 06:11:25;;;;;;;23.50;11.80;;;;;;;-1.78;100.00;100239.09;5536072;32;34542;-91
2023/01/27 06:14:28;;;;;;;20.67;11.07;;;;;;;-1.70;100.00;100234.78;5542122;32;33951;-91
2023/01/27 06:17:31;;;;;;;23.83;11.35;;;;;;;-1.76;100.00;100240.00;5533871;32;33614;-89
2023/01/27 06:20:34;;;;;;;19.80;11.15;;;;;;;-1.77;100.00;100233.91;5530297;32;33771;-88
2023/01/27 06:23:38;;;;;;;23.33;11.27;;;;;;;-1.78;100.00;100229.59;5540427;32;33804;-88
2023/01/27 06:26:40;;;;;;;20.27;10.57;;;;;;;-1.76;100.00;100224.38;5543249;32;32568;-88
2023/01/27 06:29:43;;;;;;;20.30;10.70;;;;;;;-1.71;100.00;100226.97;5534503;32;34191;-88
2023/01/27 06:32:46;;;;;;;23.12;11.27;;;;;;;-1.63;100.00;100227.81;5537541;32;34324;-88
2023/01/27 06:35:49;;;;;;;20.20;10.85;;;;;;;-1.56;100.00;100236.47;5540376;32;34134;-88
2023/01/27 06:38:52;;;;;;;18.98;10.20;;;;;;;-1.52;100.00;100238.19;5533227;32;34167;-88
2023/01/27 06:41:54;;;;;;;18.48;9.27;;;;;;;-1.45;100.00;100236.44;5543241;32;34176;-88
2023/01/27 06:44:57;;;;;;;23.87;11.55;;;;;;;-1.40;100.00;100235.56;5540917;32;34568;-88
2023/01/27 06:48:00;;;;;;;20.80;9.82;;;;;;;-1.28;100.00;100241.59;5541432;32;34236;-88
2023/01/27 06:51:03;;;;;;;19.33;10.23;;;;;;;-1.25;100.00;100239.00;5552042;32;34569;-88
2023/01/27 06:54:06;;;;;;;22.42;10.48;;;;;;;-1.18;100.00;100240.72;5532647;32;33934;-88
2023/01/27 06:57:09;;;;;;;20.55;9.55;;;;;;;-1.12;100.00;100245.91;5550509;32;34435;-88
2023/01/27 07:00:13;;;;;;;18.02;9.20;;;;;;;-1.05;100.00;100238.06;5547519;32;34189;-88
2023/01/27 07:03:16;;;;;;;20.27;10.00;;;;;;;-1.04;100.00;100240.66;5532306;32;35253;-87
2023/01/27 07:06:19;;;;;;;18.75;9.77;;;;;;;-0.78;100.00;100246.63;5625746;26;34426;-88
2023/01/27 07:09:22;;;;;;;17.75;9.77;;;;;;;-0.84;100.00;100240.56;5559251;32;33850;-88
2023/01/27 07:12:25;;;;;;;18.75;10.43;;;;;;;-0.85;100.00;100236.22;5557762;32;33856;-88
2023/01/27 07:15:29;;;;;;;19.10;10.23;;;;;;;-0.77;100.00;100244.00;5570701;32;35114;-88
2023/01/27 07:18:32;;;;;;;16.50;9.40;;;;;;;-0.70;100.00;100237.88;5559772;32;35210;-88
2023/01/27 07:21:35;;;;;;;18.48;10.18;;;;;;;-0.58;100.00;100246.50;5568015;32;34539;-87
2023/01/27 07:24:38;;;;;;;17.83;9.88;;;;;;;-0.44;100.00;100238.62;5557468;32;34182;-88
2023/01/27 07:27:40;;;;;;;20.60;9.65;;;;;;;-0.41;100.00;100249.00;5565807;32;33894;-87
2023/01/27 07:30:43;;;;;;;17.42;10.00;;;;;;;-0.35;100.00;100256.78;5570054;32;33969;-88
2023/01/27 07:33:46;;;;;;;21.48;10.32;;;;;;;-0.23;100.00;100257.59;5566495;32;33746;-89
2023/01/27 07:36:50;;;;;;;20.92;10.48;;;;;;;-0.17;100.00;100254.94;5552462;32;33819;-89
2023/01/27 07:39:53;;;;;;;18.25;10.02;;;;;;;-0.12;100.00;100254.88;5561916;32;33934;-89
2023/01/27 07:43:00;;;;;;;18.77;9.88;;;;;;;-0.12;100.00;100258.38;5576167;32;35496;-89
2023/01/27 07:46:03;;;;;;;19.42;8.82;;;;;;;0.05;100.00;100254.78;5577015;32;33959;-88
2023/01/27 07:49:06;;;;;;;16.40;9.65;;;;;;;0.04;98.98;100242.62;5571558;32;33582;-88
2023/01/27 07:52:08;;;;;;;16.23;9.75;;;;;;;0.12;98.07;100239.06;5570413;32;34017;-88
2023/01/27 07:55:11;;;;;;;16.83;9.07;;;;;;;0.17;96.70;100236.41;5553625;32;34081;-88
2023/01/27 07:58:15;;;;;;;18.55;9.20;;;;;;;0.08;96.01;100236.47;5552862;32;34668;-89
2023/01/27 08:01:19;;;;;;;16.40;9.55;;;;;;;0.11;96.27;100239.06;5548854;32;35507;-87
2023/01/27 08:04:22;;;;;;;17.08;9.23;;;;;;;0.13;94.83;100239.91;5559440;32;34029;-89
2023/01/27 08:07:24;;;;;;;17.12;9.35;;;;;;;0.16;93.76;100246.84;5578235;32;33766;-88
2023/01/27 08:10:29;;;;;;;17.73;9.00;;;;;;;0.26;94.36;100245.91;5567152;32;35287;-90
2023/01/27 08:13:31;;;;;;;19.37;9.75;;;;;;;0.53;94.54;100249.12;5548916;32;34822;-90
2023/01/27 08:16:34;;;;;;;20.00;9.80;;;;;;;0.43;91.59;100248.34;5623755;26;33929;-88
2023/01/27 08:19:37;;;;;;;19.35;10.05;;;;;;;0.52;92.74;100250.84;5555829;32;34499;-88
2023/01/27 08:22:40;;;;;;;20.12;11.27;;;;;;;0.62;93.93;100249.03;5554594;32;33841;-86
2023/01/27 08:25:52;;;;;;;23.70;11.88;;;;;;;0.56;94.33;100251.72;5561820;32;33765;-88
2023/01/27 08:28:55;;;;;;;21.92;12.32;;;;;;;0.51;95.95;100253.50;5566738;32;34107;-91
2023/01/27 08:31:57;;;;;;;24.90;12.57;;;;;;;0.55;96.50;100251.72;5549765;32;34430;-91
2023/01/27 08:35:00;;;;;;;22.35;11.85;;;;;;;0.34;96.59;100257.13;5542965;32;34151;-88
2023/01/27 08:38:04;;;;;;;22.80;12.20;;;;;;;0.33;98.22;100257.13;5555494;32;34468;-88
2023/01/27 08:41:10;;;;;;;23.27;12.02;;;;;;;0.25;98.18;100250.25;5548678;32;34177;-89
2023/01/27 08:44:12;;;;;;;24.40;12.95;;;;;;;0.29;99.19;100253.69;5560541;32;33864;-87
2023/01/27 08:47:16;;;;;;;24.73;12.32;;;;;;;0.46;99.08;100255.28;5555318;32;34047;-87
2023/01/27 08:50:18;;;;;;;24.33;11.23;;;;;;;0.49;98.89;100257.84;5549751;32;33813;-89
2023/01/27 08:53:22;;;;;;;21.20;10.23;;;;;;;0.58;93.66;100262.09;5541554;32;33776;-88
2023/01/27 08:56:25;;;;;;;17.50;9.15;;;;;;;0.65;89.63;100267.25;5565892;32;34247;-89
2023/01/27 08:59:28;;;;;;;15.93;9.80;;;;;;;0.73;87.97;100267.19;5547317;32;33766;-89
2023/01/27 09:02:31;;;;;;;20.25;9.55;;;;;;;0.69;87.62;100264.63;5545097;32;33941;-88
2023/01/27 09:05:35;;;;;;;16.83;9.13;;;;;;;0.78;85.96;100270.63;5562254;32;34657;-87
2023/01/27 09:08:39;;;;;;;16.33;9.55;;;;;;;0.79;85.28;100267.13;5546665;32;34418;-87
2023/01/27 09:11:46;;;;;;;21.77;9.48;;;;;;;0.88;86.34;100273.09;5542450;32;33944;-87
2023/01/27 09:14:48;;;;;;;20.60;9.10;;;;;;;0.55;85.14;100275.22;5553621;32;34434;-87
2023/01/27 09:17:51;;;;;;;16.73;8.80;;;;;;;0.73;86.24;100281.97;5548655;32;33384;-87
2023/01/27 09:20:54;;;;;;;15.60;8.02;;;;;;;0.67;86.08;100275.94;5559276;32;33952;-85
2023/01/27 09:23:57;;;;;;;17.48;8.38;;;;;;;0.86;84.48;100273.12;5565408;32;34166;-85
2023/01/27 09:27:00;;;;;;;14.73;8.50;;;;;;;0.72;84.55;100273.28;5567441;32;34791;-87
2023/01/27 09:30:06;;;;;;;15.13;8.60;;;;;;;0.79;84.58;100274.94;5562446;32;33892;-85
2023/01/27 09:33:09;;;;;;;14.27;8.23;;;;;;;0.64;84.85;100281.19;5545408;32;34082;-88
2023/01/27 09:36:19;;;;;;;17.33;8.73;;;;;;;0.82;85.33;100279.28;5558324;32;33528;-86
2023/01/27 09:39:22;;;;;;;13.55;7.55;;;;;;;0.93;84.28;100282.62;5553966;32;34150;-87
2023/01/27 09:42:58;;;;;;;9.98;6.37;;;;;;;0.98;85.62;100286.94;5544490;32;35157;-87
2023/01/27 09:46:07;;;;;;;10.85;6.37;;;;;;;0.62;89.74;100284.69;5550438;32;33917;-88
2023/01/27 09:49:28;;;;;;;9.13;5.85;;;;;;;0.66;91.72;100286.41;5566908;32;34403;-88
2023/01/27 09:52:37;;;;;;;14.15;5.60;;;;;;;0.38;93.68;100281.44;5568734;32;35151;-90
2023/01/27 09:56:27;;;;;;;9.63;5.93;;;;;;;0.40;95.15;100283.16;5541634;32;35126;-86
2023/01/27 10:00:00;;;;;;;9.43;5.75;;;;;;;0.25;97.69;100284.16;5553744;32;33683;-87
2023/01/27 10:03:12;;;;;;;10.75;6.40;;;;;;;0.40;98.38;100282.28;5513640;32;34061;-87
2023/01/27 10:06:23;;;;;;;10.73;6.72;;;;;;;0.20;98.04;100280.72;5545525;32;34380;-86
2023/01/27 10:09:50;;;;;;;11.23;6.40;;;;;;;0.33;98.81;100278.00;5552394;32;35027;-86
2023/01/27 10:13:11;;;;;;;14.65;8.25;;;;;;;0.46;98.76;100277.00;5567134;32;34818;-86
2023/01/27 10:16:28;;;;;;;11.43;6.80;;;;;;;0.65;98.52;100280.31;5572173;32;33797;-85
2023/01/27 10:20:01;;;;;;;10.98;6.57;;;;;;;0.62;100.00;100274.25;5566547;32;34161;-91
2023/01/27 10:23:20;;;;;;;9.82;6.50;;;;;;;0.32;100.00;100269.34;5554267;32;35205;-87
2023/01/27 10:26:54;;;;;;;11.60;6.75;;;;;;;0.46;100.00;100276.16;5556127;32;34015;-88
2023/01/27 10:30:07;;;;;;;13.27;7.10;;;;;;;0.49;100.00;100270.91;5540427;32;33477;-89
2023/01/27 10:33:17;;;;;;;11.07;6.72;;;;;;;0.47;100.00;100283.09;5546859;32;34121;-89
2023/01/27 10:36:27;;;;;;;11.25;7.20;;;;;;;0.63;100.00;100275.97;5554590;32;33578;-88
2023/01/27 10:39:42;;;;;;;11.88;7.50;;;;;;;0.54;100.00;100269.09;5540194;32;34589;-88
2023/01/27 10:43:01;;;;;;;13.07;7.65;;;;;;;0.50;100.00;100270.87;5565553;32;34220;-87
2023/01/27 10:46:19;;;;;;;13.35;6.97;;;;;;;0.46;100.00;100278.78;5556240;32;34193;-87
2023/01/27 10:49:31;;;;;;;13.20;7.28;;;;;;;0.25;100.00;100273.72;5563460;32;35380;-91
2023/01/27 10:52:48;;;;;;;13.23;6.95;;;;;;;0.24;100.00;100269.38;5542822;32;34114;-88
2023/01/27 10:56:05;;;;;;;12.98;7.32;;;;;;;0.07;100.00;100266.94;5535160;32;34088;-88
2023/01/27 10:59:37;;;;;;;14.18;8.20;;;;;;;0.13;100.00;100264.28;5557146;32;34369;-89
2023/01/27 11:03:06;;;;;;;21.98;8.90;;;;;;;0.25;100.00;100258.06;5558111;32;34104;-88
2023/01/27 11:06:34;;;;;;;12.52;7.15;;;;;;;0.27;100.00;100258.06;5560382;32;34027;-89
2023/01/27 11:09:47;;;;;;;13.25;7.00;;;;;;;0.14;100.00;100259.91;5564514;32;34152;-89
2023/01/27 11:12:54;;;;;;;12.07;7.47;;;;;;;0.17;100.00;100254.69;5561896;32;33816;-89
2023/01/27 11:15:59;;;;;;;11.73;7.10;;;;;;;-0.22;100.00;100254.09;5563997;32;33993;-90
2023/01/27 11:19:41;;;;;;;14.45;7.43;;;;;;;-0.16;100.00;100248.84;5553028;32;34639;-87
2023/01/27 11:22:53;;;;;;;12.68;7.72;;;;;;;-0.08;100.00;100247.06;5478043;32;34332;-89
2023/01/27 11:26:22;;;;;;;13.00;7.75;;;;;;;-0.26;100.00;100247.19;5555950;32;34157;-89
2023/01/27 11:29:52;;;;;;;16.83;8.55;;;;;;;-0.19;100.00;100241.06;5549946;32;34611;-90
2023/01/27 11:33:05;;;;;;;15.80;8.77;;;;;;;-0.08;100.00;100243.56;5551984;32;33962;-89
2023/01/27 11:36:08;;;;;;;16.05;9.50;;;;;;;-0.25;100.00;100243.69;5554516;32;34472;-89
2023/01/27 11:39:14;;;;;;;14.90;8.70;;;;;;;-0.10;100.00;100233.13;5555056;32;33673;-88
2023/01/27 11:42:17;;;;;;;16.17;8.75;;;;;;;-0.22;100.00;100235.84;5611666;26;35203;-89
2023/01/27 11:45:20;;;;;;;13.57;8.32;;;;;;;-0.19;100.00;100231.47;5560179;32;34204;-89
2023/01/27 11:48:23;;;;;;;16.20;8.73;;;;;;;-0.22;100.00;100228.03;5556283;32;34661;-89
2023/01/27 11:51:34;;;;;;;16.37;9.48;;;;;;;-0.16;100.00;100221.03;5553025;32;34142;-90
2023/01/27 11:54:56;;;;;;;;;;;;;;;-0.22;100.00;100225.41;5561472;31;34679;-88
2023/01/27 11:58:30;;;;;;;14.32;8.98;;;;;;;-0.09;100.00;100218.38;5558596;32;34220;-89
2023/01/27 12:35:23;;;;;;;19.58;11.05;;;;;;;-0.03;100.00;100180.09;2466191;30;20076;-91
2023/01/27 12:42:33;;;;;;;21.65;11.57;;;;;;;0.27;100.00;100177.19;5586053;26;20073;-90
2023/01/27 12:45:37;;;;;;;19.40;10.95;;;;;;;0.19;100.00;100182.47;5569576;26;33492;-89
2023/01/27 13:27:04;;;;;;;20.65;11.40;;;;;;;-0.11;100.00;100187.09;5578906;26;20104;-89
2023/01/27 13:30:22;;;;;;;20.37;10.57;;;;;;;-0.10;100.00;100199.25;5490407;32;34497;-89
2023/01/27 13:33:31;;;;;;;19.75;11.20;;;;;;;-0.26;100.00;100198.50;5486333;32;33973;-88
2023/01/27 13:40:31;;;;;;;20.15;11.70;;;;;;;-0.03;100.00;100194.84;5500923;32;33372;-87
2023/01/27 13:43:40;;;;;;;22.50;11.60;;;;;;;-0.01;100.00;100193.09;5503075;32;34149;-89
2023/01/27 13:46:43;;;;;;;21.95;11.30;;;;;;;-0.10;100.00;100194.03;5494069;32;34100;-88
2023/01/27 13:49:52;;;;;;;20.80;11.45;;;;;;;-0.20;100.00;100197.59;5493925;32;34012;-87
2023/01/27 13:52:57;;;;;;;18.05;10.55;;;;;;;-0.06;100.00;100200.06;5494587;32;34385;-87
2023/01/27 13:56:07;;;;;;;19.80;11.50;;;;;;;-0.31;100.00;100197.66;5494331;32;34020;-90
2023/01/27 13:59:13;;;;;;;20.58;11.30;;;;;;;-0.09;100.00;100202.72;5493890;32;34036;-89
2023/01/27 14:02:34;;;;;;;21.20;11.52;;;;;;;-0.04;100.00;100198.34;5500527;32;33990;-88
2023/01/27 14:05:45;;;;;;;21.40;11.40;;;;;;;0.02;100.00;100192.19;5500885;32;33958;-87
2023/01/27 14:09:00;;;;;;;22.47;11.80;;;;;;;0.23;100.00;100188.50;5495146;32;34633;-87
2023/01/27 14:12:25;;;;;;;20.00;11.63;;;;;;;0.28;100.00;100186.72;5503841;32;33808;-87
2023/01/27 14:15:54;;;;;;;20.92;11.93;;;;;;;0.01;100.00;100193.94;5517329;32;34347;-88
2023/01/27 14:19:27;;;;;;;19.85;10.98;;;;;;;0.02;100.00;100190.47;5480859;32;34413;-88
2023/01/27 14:22:49;;;;;;;20.08;10.55;;;;;;;0.05;100.00;100187.81;5482919;32;34528;-87
2023/01/27 14:25:55;;;;;;;20.17;11.93;;;;;;;0.13;100.00;100190.34;5493230;32;34677;-88
2023/01/27 14:29:32;;;;;;;21.50;11.63;;;;;;;-0.08;100.00;100192.28;5495246;32;34485;-88
2023/01/27 14:32:56;;;;;;;20.85;11.12;;;;;;;-0.03;100.00;100193.13;5510991;32;34770;-87
2023/01/27 14:36:20;;;;;;;21.60;10.85;;;;;;;-0.11;100.00;100200.13;5477361;32;33744;-88
2023/01/27 14:39:31;;;;;;;21.40;11.02;;;;;;;-0.15;100.00;100188.84;5519694;27;33509;-88
2023/01/27 14:43:17;;;;;;;20.73;11.30;;;;;;;-0.24;100.00;100193.28;2370694;30;20081;-88
2023/01/27 14:46:38;;;;;;;18.98;10.68;;;;;;;-0.11;100.00;100184.47;5531338;32;34374;-87
2023/01/27 14:49:57;;;;;;;22.13;11.45;;;;;;;0.06;100.00;100181.75;5530850;32;34004;-86
2023/01/27 14:53:22;;;;;;;21.48;11.00;;;;;;;0.02;100.00;100189.59;5530591;32;33944;-87
2023/01/27 14:56:51;;;;;;;18.90;11.02;;;;;;;-0.07;100.00;100185.31;5534845;32;34604;-87
2023/01/27 15:00:28;;;;;;;20.70;11.43;;;;;;;-0.06;100.00;100189.66;5517091;32;34571;-88
2023/01/27 15:04:07;;;;;;;19.60;11.18;;;;;;;-0.07;100.00;100190.53;5553314;32;35113;-87
2023/01/27 15:07:26;;;;;;;20.52;11.30;;;;;;;-0.06;100.00;100187.03;5552820;32;34259;-87
2023/01/27 15:10:31;;;;;;;21.90;11.90;;;;;;;-0.04;100.00;100186.16;5553783;32;35284;-87
2023/01/27 15:14:13;;;;;;;21.90;11.73;;;;;;;-0.16;100.00;100188.88;5548831;32;34769;-88
2023/01/27 15:17:19;;;;;;;20.85;11.77;;;;;;;-0.08;100.00;100181.84;5531660;32;34365;-88
2023/01/27 15:20:29;;;;;;;20.90;11.38;;;;;;;-0.16;100.00;100181.91;5535209;32;34030;-87
2023/01/27 15:24:02;;;;;;;21.83;11.90;;;;;;;-0.07;100.00;100188.78;5530044;32;33912;-87
2023/01/27 15:27:08;;;;;;;22.15;11.80;;;;;;;-0.08;100.00;100187.06;5530728;32;34306;-88
2023/01/27 15:30:25;;;;;;;22.60;12.45;;;;;;;0.19;100.00;100199.87;5542327;32;33898;-87
2023/01/27 15:33:47;;;;;;;20.77;11.60;;;;;;;-0.07;100.00;100193.13;5532624;32;35181;-89
2023/01/27 15:37:11;;;;;;;23.95;11.98;;;;;;;-0.14;100.00;100192.34;5532697;32;33554;-87
2023/01/27 15:40:16;;;;;;;18.55;11.00;;;;;;;-0.16;100.00;100196.69;5529747;32;34369;-87
2023/01/27 15:43:22;;;;;;;19.85;11.10;;;;;;;-0.16;100.00;100205.38;5560154;26;34086;-87
2023/01/27 15:46:32;;;;;;;21.17;12.05;;;;;;;-0.16;100.00;100213.22;5518870;31;33649;-87
2023/01/27 15:49:56;;;;;;;23.42;11.73;;;;;;;-0.16;100.00;100213.22;5516606;32;33692;-88
2023/01/27 15:53:03;;;;;;;20.12;11.18;;;;;;;-0.16;100.00;100217.53;5560764;26;34776;-87
2023/01/27 15:56:08;;;;;;;18.65;10.75;;;;;;;-0.15;100.00;100219.31;5518147;32;33924;-88
2023/01/27 15:59:24;;;;;;;18.67;10.75;;;;;;;-0.16;100.00;100209.72;5515170;32;34085;-88
2023/01/27 16:02:29;;;;;;;21.62;10.45;;;;;;;0.06;100.00;100199.13;5517611;32;34018;-88
2023/01/27 16:05:42;;;;;;;18.80;9.68;;;;;;;-0.04;100.00;100193.13;5528176;26;33737;-88
2023/01/27 16:09:07;;;;;;;19.90;11.70;;;;;;;-0.08;100.00;100197.50;5543078;26;34010;-88
2023/01/27 16:12:23;;;;;;;19.83;10.35;;;;;;;-0.02;100.00;100201.78;5500405;32;35324;-88
2023/01/27 16:15:34;;;;;;;20.02;10.73;;;;;;;0.07;100.00;100213.87;5512787;32;34624;-89
2023/01/27 16:18:43;;;;;;;19.15;10.70;;;;;;;-0.05;100.00;100212.25;5513004;32;34025;-88
2023/01/27 16:22:14;;;;;;;20.08;11.32;;;;;;;0.01;100.00;100220.03;5514620;32;34483;-88
2023/01/27 16:25:37;;;;;;;22.37;10.52;;;;;;;-0.01;100.00;100221.78;5512278;32;34283;-88
2023/01/27 16:28:44;;;;;;;21.92;11.75;;;;;;;-0.10;100.00;100225.31;5514003;32;34069;-88
2023/01/27 16:31:55;;;;;;;23.12;11.40;;;;;;;-0.02;100.00;100220.03;5513278;32;34580;-88
2023/01/27 16:35:04;;;;;;;20.48;11.73;;;;;;;-0.06;100.00;100227.03;5515312;31;34257;-88
2023/01/27 16:38:28;;;;;;;19.12;11.32;;;;;;;-0.04;100.00;100234.84;5554741;26;34910;-89
